This is the latest recevied weather packets stored in our database for station/object N5JXS. If no packets are shown the sender has not sent any weather packets the latest 10 day(s).
| Time | Temp. | Humidity | Pressure | Rain* | Wind** | Luminosity | Snow |
|---|---|---|---|---|---|---|---|
| 1777309469 | 7.78° C | 60% | 1014.5 hPa | 0 mm | - | 265 W/m² | - |
| 1777309166 | 7.78° C | 61% | 1014.6 hPa | 0 mm | - | 707 W/m² | - |
| 1777308864 | 7.78° C | 60% | 1014.8 hPa | 0 mm | - | 675 W/m² | - |
| 1777308559 | 7.78° C | 60% | 1014.6 hPa | 0 mm | - | 624 W/m² | - |
| 1777308255 | 6.67° C | 63% | 1014.8 hPa | 0 mm | - | 598 W/m² | - |
| 1777307950 | 6.67° C | 64% | 1014.5 hPa | 0 mm | - | 590 W/m² | - |
| 1777307649 | 6.67° C | 66% | 1014.4 hPa | 0 mm | - | 579 W/m² | - |
| 1777307345 | 6.67° C | 64% | 1014.4 hPa | 0 mm | - | 567 W/m² | - |
| 1777307042 | 6.11° C | 66% | 1014.6 hPa | 0 mm | - | 581 W/m² | - |
| 1777306740 | 6.11° C | 66% | 1014.5 hPa | 0 mm | - | 272 W/m² | - |
| 1777306437 | 5.56° C | 67% | 1014 hPa | 0 mm | - | 333 W/m² | - |
| 1777306131 | 5.56° C | 68% | 1014.3 hPa | 0 mm | - | 202 W/m² | - |
| 1777305827 | 5.56° C | 69% | 1014.1 hPa | 0 mm | - | 61 W/m² | - |
| 1777305523 | 5.56° C | 68% | 1014.3 hPa | 0 mm | - | 42 W/m² | - |
| 1777305219 | 5.56° C | 69% | 1014.3 hPa | 0 mm | - | 51 W/m² | - |
| 1777304914 | 5.56° C | 69% | 1014 hPa | 0 mm | - | 44 W/m² | - |
| 1777304611 | 5° C | 71% | 1014.1 hPa | 0 mm | - | 41 W/m² | - |
| 1777304307 | 5.56° C | 70% | 1014.1 hPa | 0 mm | - | 66 W/m² | - |
| 1777304005 | 6.11° C | 68% | 1014.3 hPa | 0 mm | - | 173 W/m² | - |
| 1777303701 | 6.11° C | 69% | 1014 hPa | 0 mm | - | 104 W/m² | - |
| 1777303399 | 6.67° C | 66% | 1013.9 hPa | 0 mm | - | 49 W/m² | - |
| 1777303096 | 6.67° C | 62% | 1013.9 hPa | 0 mm | - | 49 W/m² | - |
| 1777302795 | 7.78° C | 53% | 1013.8 hPa | 0 mm | - | 55 W/m² | - |
| 1777302492 | 8.89° C | 45% | 1013.5 hPa | 0 mm | - | 61 W/m² | - |
| 1777302189 | 8.33° C | 39% | 1013.5 hPa | 0 mm | - | 337 W/m² | - |
* Rain latest hour (hover to see other rain measurements)
** Current wind speed in m/s (hover to see current wind gust speed)